createdAt,value
2022-08-17T00:01:26.201Z,100.00
2022-08-17T00:03:54.602Z,100.00
2022-08-17T00:06:28.020Z,100.00
2022-08-17T00:09:02.718Z,100.00
2022-08-17T00:11:36.161Z,100.00
2022-08-17T00:14:10.628Z,100.00
2022-08-17T00:16:55.738Z,100.00
2022-08-17T00:19:25.561Z,100.00
2022-08-17T00:22:33.171Z,100.00
2022-08-17T00:24:40.878Z,100.00
2022-08-17T00:27:07.274Z,100.00
2022-08-17T00:29:33.851Z,100.00
2022-08-17T00:32:01.871Z,100.00
2022-08-17T00:34:48.256Z,100.00
2022-08-17T00:37:14.723Z,100.00
2022-08-17T00:39:41.285Z,100.00
2022-08-17T00:42:18.644Z,100.00
2022-08-17T00:44:46.095Z,100.00
2022-08-17T00:47:12.550Z,100.00
2022-08-17T00:49:39.029Z,100.00
2022-08-17T00:52:12.513Z,100.00
2022-08-17T00:54:42.363Z,100.00
2022-08-17T00:57:15.027Z,100.00
2022-08-17T00:59:46.436Z,100.00
2022-08-17T01:02:29.895Z,100.00
2022-08-17T01:05:01.120Z,100.00
2022-08-17T01:07:27.620Z,100.00
2022-08-17T01:09:54.778Z,100.00
2022-08-17T01:12:21.473Z,100.00
2022-08-17T01:14:47.910Z,100.00
2022-08-17T01:17:14.386Z,100.00
2022-08-17T01:19:42.760Z,100.00
2022-08-17T01:22:09.129Z,100.00
2022-08-17T01:24:38.070Z,96.95
2022-08-17T01:27:10.675Z,91.07
2022-08-17T01:29:41.079Z,87.19
2022-08-17T01:32:08.322Z,85.45
2022-08-17T01:34:43.486Z,82.59
2022-08-17T01:37:12.311Z,79.73
2022-08-17T01:39:44.450Z,76.24
2022-08-17T01:42:13.130Z,72.87
2022-08-17T01:44:40.546Z,69.33
2022-08-17T01:47:07.336Z,65.16
2022-08-17T01:49:34.092Z,62.42
2022-08-17T01:52:09.859Z,60.43
2022-08-17T01:54:39.150Z,58.36
2022-08-17T01:57:06.008Z,56.43
2022-08-17T01:59:32.666Z,55.01
2022-08-17T02:02:00.050Z,54.01
2022-08-17T02:04:26.602Z,53.15
2022-08-17T02:06:54.584Z,52.59
2022-08-17T02:09:26.331Z,52.08
2022-08-17T02:11:59.111Z,51.72
2022-08-17T02:14:26.295Z,51.49
2022-08-17T02:16:53.358Z,51.38
2022-08-17T02:19:20.441Z,51.26
2022-08-17T02:21:52.728Z,51.20
2022-08-17T02:24:58.707Z,51.16
2022-08-17T02:27:10.857Z,51.14
2022-08-17T02:29:37.880Z,51.13
2022-08-17T02:32:04.986Z,51.15
2022-08-17T02:34:31.733Z,51.20
2022-08-17T02:36:58.198Z,51.18
2022-08-17T02:39:24.680Z,51.22
2022-08-17T02:42:00.898Z,51.22
2022-08-17T02:44:35.408Z,51.21
2022-08-17T02:47:08.974Z,51.20
2022-08-17T02:49:35.670Z,51.19
2022-08-17T02:52:07.264Z,51.20
2022-08-17T02:54:41.599Z,51.19
2022-08-17T02:57:10.191Z,51.20
2022-08-17T02:59:44.272Z,51.18
2022-08-17T03:02:14.843Z,51.15
2022-08-17T03:04:41.358Z,51.12
2022-08-17T03:07:07.829Z,51.12
2022-08-17T03:09:34.254Z,51.12
2022-08-17T03:12:13.043Z,51.10
2022-08-17T03:14:43.597Z,51.07
2022-08-17T03:17:11.028Z,51.03
2022-08-17T03:19:43.758Z,51.02
2022-08-17T03:22:36.674Z,51.01
2022-08-17T03:24:56.905Z,50.99
2022-08-17T03:27:23.352Z,50.99
2022-08-17T03:29:49.765Z,50.99
2022-08-17T03:32:17.118Z,51.00
2022-08-17T03:34:43.597Z,50.98
2022-08-17T03:37:10.073Z,50.99
2022-08-17T03:39:36.533Z,50.98
2022-08-17T03:42:32.110Z,50.99
2022-08-17T03:44:59.128Z,50.97
2022-08-17T03:47:25.593Z,50.97
2022-08-17T03:49:52.044Z,50.97
2022-08-17T03:52:18.507Z,50.98
2022-08-17T03:54:45.339Z,50.98
2022-08-17T03:57:12.187Z,50.97
2022-08-17T03:59:39.072Z,50.97
2022-08-17T04:02:19.003Z,50.96
2022-08-17T04:04:45.509Z,50.98
2022-08-17T04:07:12.214Z,50.98
2022-08-17T04:09:38.682Z,50.98
2022-08-17T04:12:05.466Z,50.98
2022-08-17T04:14:33.196Z,50.99
2022-08-17T04:16:59.642Z,50.98
2022-08-17T04:19:26.030Z,50.99
2022-08-17T04:21:52.439Z,50.98
2022-08-17T04:24:19.010Z,51.00
2022-08-17T04:26:50.576Z,50.99
2022-08-17T04:29:20.221Z,50.99
2022-08-17T04:31:46.644Z,50.99
2022-08-17T04:34:13.132Z,50.99
2022-08-17T04:36:39.608Z,51.00
2022-08-17T04:39:06.098Z,51.00
2022-08-17T04:41:32.745Z,50.99
2022-08-17T04:44:00.197Z,51.00
2022-08-17T04:46:29.958Z,51.00
2022-08-17T04:48:57.585Z,51.01
2022-08-17T04:51:35.150Z,51.01
2022-08-17T04:54:05.299Z,51.00
2022-08-17T04:56:32.477Z,51.01
2022-08-17T04:59:01.982Z,51.01
2022-08-17T05:01:31.639Z,51.02
2022-08-17T05:04:20.784Z,51.02
2022-08-17T05:06:48.952Z,51.03
2022-08-17T05:09:17.103Z,51.04
2022-08-17T05:11:45.068Z,51.03
2022-08-17T05:14:11.862Z,51.03
2022-08-17T05:16:38.329Z,51.02
2022-08-17T05:19:04.832Z,51.03
2022-08-17T05:21:31.293Z,51.03
2022-08-17T05:23:57.880Z,51.03
2022-08-17T05:26:27.477Z,51.03
2022-08-17T05:28:59.384Z,51.04
2022-08-17T05:31:27.197Z,51.05
2022-08-17T05:33:53.797Z,51.04
2022-08-17T05:36:37.899Z,51.03
2022-08-17T05:39:06.836Z,51.03
2022-08-17T05:41:33.273Z,51.03
2022-08-17T05:43:59.761Z,51.03
2022-08-17T05:46:36.241Z,51.03
2022-08-17T05:49:05.732Z,51.01
2022-08-17T05:51:32.092Z,51.03
2022-08-17T05:54:09.596Z,51.03
2022-08-17T05:57:00.677Z,51.04
2022-08-17T05:59:36.882Z,51.05
2022-08-17T06:02:36.171Z,51.04
2022-08-17T06:05:10.505Z,51.04
2022-08-17T06:07:53.814Z,51.06
2022-08-17T06:10:32.029Z,51.05
2022-08-17T06:13:17.589Z,51.06
2022-08-17T06:15:53.231Z,51.07
2022-08-17T06:18:21.970Z,51.06
2022-08-17T06:20:59.755Z,51.06
2022-08-17T06:23:41.397Z,51.07
2022-08-17T06:26:14.637Z,51.07
2022-08-17T06:28:51.829Z,51.07
2022-08-17T06:31:26.314Z,51.07
2022-08-17T06:33:53.443Z,51.07
2022-08-17T06:36:51.541Z,51.07
2022-08-17T06:39:24.580Z,51.07
2022-08-17T06:43:02.331Z,51.08
2022-08-17T06:45:34.430Z,51.07
2022-08-17T06:48:14.321Z,51.07
2022-08-17T06:50:46.579Z,51.07
2022-08-17T06:53:34.413Z,51.07
2022-08-17T06:56:00.792Z,51.07
2022-08-17T06:58:29.829Z,51.06
2022-08-17T07:00:58.797Z,51.06
2022-08-17T07:03:28.321Z,51.05
2022-08-17T07:06:03.208Z,51.06
2022-08-17T07:08:35.359Z,51.06
2022-08-17T07:11:17.055Z,51.06
2022-08-17T07:14:04.928Z,51.06
2022-08-17T07:16:39.450Z,51.07
2022-08-17T07:19:06.217Z,51.06
2022-08-17T07:21:58.701Z,51.08
2022-08-17T07:24:35.395Z,51.07
2022-08-17T07:27:15.661Z,51.07
2022-08-17T07:29:50.184Z,51.06
2022-08-17T07:32:24.153Z,51.07
2022-08-17T07:35:17.693Z,51.08
2022-08-17T07:38:25.967Z,51.07
2022-08-17T07:40:56.049Z,51.08
2022-08-17T07:43:25.151Z,51.08
2022-08-17T07:45:55.869Z,51.07
2022-08-17T07:48:25.939Z,51.07
2022-08-17T07:50:52.477Z,51.09
2022-08-17T07:53:23.212Z,51.09
2022-08-17T07:55:51.132Z,51.09
2022-08-17T07:58:22.023Z,51.08
2022-08-17T08:01:14.134Z,51.08
2022-08-17T08:03:43.773Z,51.08
2022-08-17T08:06:24.831Z,51.09
2022-08-17T08:08:54.266Z,51.08
2022-08-17T08:11:33.810Z,51.09
2022-08-17T08:14:28.329Z,51.08
2022-08-17T08:17:01.494Z,51.09
2022-08-17T08:19:30.542Z,51.08
2022-08-17T08:22:00.131Z,51.08
2022-08-17T08:24:49.043Z,51.09
2022-08-17T08:27:24.585Z,51.07
2022-08-17T08:30:02.353Z,51.08
2022-08-17T08:32:43.800Z,51.08
2022-08-17T08:35:29.489Z,51.09
2022-08-17T08:38:00.906Z,51.08
2022-08-17T08:40:38.550Z,51.09
2022-08-17T08:43:37.013Z,51.09
2022-08-17T08:46:23.536Z,51.08
2022-08-17T08:50:02.810Z,51.07
2022-08-17T08:52:45.968Z,51.08
2022-08-17T08:55:35.418Z,51.09
2022-08-17T08:58:32.120Z,51.07
2022-08-17T09:01:05.437Z,51.08
2022-08-17T09:04:23.251Z,51.08
2022-08-17T09:06:57.558Z,51.08
2022-08-17T09:09:42.735Z,51.08
2022-08-17T09:12:25.660Z,51.07
2022-08-17T09:15:01.219Z,51.07
2022-08-17T09:17:39.594Z,51.07
2022-08-17T09:20:28.088Z,51.07
2022-08-17T09:23:15.116Z,51.08
2022-08-17T09:26:04.761Z,51.08
2022-08-17T09:28:36.396Z,51.08
2022-08-17T09:31:14.470Z,51.08
2022-08-17T09:33:45.502Z,51.07
2022-08-17T09:36:18.401Z,51.07
2022-08-17T09:39:14.409Z,51.08
2022-08-17T09:41:48.539Z,51.07
2022-08-17T09:44:30.822Z,51.06
2022-08-17T09:47:10.675Z,51.07
2022-08-17T09:49:46.511Z,51.07
2022-08-17T09:52:23.633Z,51.07
2022-08-17T09:54:52.075Z,51.07
2022-08-17T09:57:37.087Z,51.07
2022-08-17T10:00:18.979Z,51.06
2022-08-17T10:02:54.032Z,51.06
2022-08-17T10:05:31.112Z,51.06
2022-08-17T10:08:06.021Z,51.05
2022-08-17T10:10:57.292Z,51.04
2022-08-17T10:13:32.863Z,51.04
2022-08-17T10:16:11.310Z,51.03
2022-08-17T10:18:53.532Z,51.04
2022-08-17T10:21:22.553Z,51.04
2022-08-17T10:24:06.176Z,51.04
2022-08-17T10:26:53.448Z,51.05
2022-08-17T10:29:47.376Z,51.07
2022-08-17T10:32:43.338Z,51.07
2022-08-17T10:35:18.309Z,51.07
2022-08-17T10:38:21.530Z,51.08
2022-08-17T10:41:02.410Z,51.10
2022-08-17T10:43:40.919Z,51.12
2022-08-17T10:46:30.662Z,51.15
2022-08-17T10:49:18.366Z,51.17
2022-08-17T10:51:47.032Z,51.17
2022-08-17T10:54:59.578Z,51.17
2022-08-17T10:57:32.081Z,51.18
2022-08-17T11:00:26.991Z,51.14
2022-08-17T11:02:55.692Z,51.13
2022-08-17T11:05:43.421Z,51.15
2022-08-17T11:08:33.619Z,51.19
2022-08-17T11:11:38.703Z,51.28
2022-08-17T11:14:07.993Z,51.43
2022-08-17T11:16:52.600Z,51.51
2022-08-17T11:19:27.948Z,51.51
2022-08-17T11:21:54.328Z,51.72
2022-08-17T11:24:29.249Z,51.97
2022-08-17T11:27:46.628Z,53.04
2022-08-17T11:30:15.276Z,53.73
2022-08-17T11:32:54.829Z,54.38
2022-08-17T11:35:21.747Z,56.04
2022-08-17T11:38:15.885Z,57.41
2022-08-17T11:41:04.886Z,59.24
2022-08-17T11:44:03.215Z,60.42
2022-08-17T11:46:35.745Z,61.10
2022-08-17T11:49:14.418Z,60.99
2022-08-17T11:51:59.030Z,64.81
2022-08-17T11:54:33.731Z,68.84
2022-08-17T11:57:26.628Z,73.18
2022-08-17T11:59:55.592Z,71.27
2022-08-17T12:02:32.509Z,70.92
2022-08-17T12:05:12.147Z,72.58
2022-08-17T12:08:17.587Z,75.48
2022-08-17T12:10:58.064Z,81.59
2022-08-17T12:13:33.970Z,83.64
2022-08-17T12:16:06.202Z,86.72
2022-08-17T12:18:33.418Z,96.76
2022-08-17T12:21:19.715Z,100.00
2022-08-17T12:24:05.232Z,100.00
2022-08-17T12:26:34.720Z,100.00
2022-08-17T12:29:05.303Z,100.00
2022-08-17T12:31:36.467Z,100.00
2022-08-17T12:34:04.917Z,100.00
2022-08-17T12:36:33.618Z,100.00
2022-08-17T12:39:13.007Z,100.00
2022-08-17T12:41:47.348Z,100.00
2022-08-17T12:44:29.761Z,100.00
2022-08-17T12:47:03.224Z,100.00
2022-08-17T12:49:36.064Z,100.00
2022-08-17T12:52:28.653Z,100.00
2022-08-17T12:55:12.846Z,100.00
2022-08-17T12:57:42.630Z,100.00
2022-08-17T13:00:16.807Z,100.00
2022-08-17T13:02:48.674Z,100.00
2022-08-17T13:05:31.361Z,100.00
2022-08-17T13:07:59.646Z,100.00
2022-08-17T13:10:34.093Z,100.00
2022-08-17T13:13:16.585Z,100.00
2022-08-17T13:15:52.991Z,100.00
2022-08-17T13:18:49.023Z,100.00
2022-08-17T13:21:18.271Z,100.00
2022-08-17T13:24:04.969Z,100.00
2022-08-17T13:26:38.190Z,100.00
2022-08-17T13:29:08.298Z,100.00
2022-08-17T13:31:52.464Z,100.00
2022-08-17T13:34:26.723Z,100.00
2022-08-17T13:37:21.919Z,100.00
2022-08-17T13:39:49.719Z,100.00
2022-08-17T13:42:34.969Z,100.00
2022-08-17T13:45:35.651Z,100.00
2022-08-17T13:48:15.587Z,100.00
2022-08-17T13:50:48.238Z,100.00
2022-08-17T13:53:24.021Z,100.00
2022-08-17T13:55:52.603Z,100.00
2022-08-17T13:58:25.860Z,100.00
2022-08-17T14:00:53.608Z,100.00
2022-08-17T14:03:20.580Z,100.00
2022-08-17T14:05:49.519Z,100.00
2022-08-17T14:08:18.179Z,100.00
2022-08-17T14:10:49.317Z,100.00
2022-08-17T14:13:15.739Z,100.00
2022-08-17T14:15:55.486Z,100.00
2022-08-17T14:18:56.310Z,100.00
2022-08-17T14:21:10.292Z,100.00
2022-08-17T14:23:37.081Z,100.00
2022-08-17T14:26:04.788Z,100.00
2022-08-17T14:28:31.941Z,100.00
2022-08-17T14:31:00.194Z,100.00
2022-08-17T14:33:28.627Z,100.00
2022-08-17T14:35:55.104Z,100.00
2022-08-17T14:38:21.516Z,100.00
2022-08-17T14:40:48.683Z,100.00
2022-08-17T14:43:15.331Z,100.00
2022-08-17T14:45:43.081Z,100.00
2022-08-17T14:48:09.654Z,100.00
2022-08-17T14:50:39.610Z,100.00
2022-08-17T14:53:07.795Z,100.00
2022-08-17T14:55:34.718Z,100.00
2022-08-17T14:58:01.701Z,66.13
2022-08-17T15:00:28.191Z,55.53
2022-08-17T15:02:58.189Z,52.47
2022-08-17T15:05:31.818Z,51.96
2022-08-17T15:07:59.550Z,51.75
2022-08-17T15:10:26.131Z,51.59
2022-08-17T15:12:52.608Z,51.54
2022-08-17T15:15:19.364Z,51.50
2022-08-17T15:17:46.272Z,51.45
2022-08-17T15:20:16.033Z,51.39
2022-08-17T15:22:43.768Z,51.36
2022-08-17T15:25:11.623Z,51.33
2022-08-17T15:27:38.104Z,51.31
2022-08-17T15:30:07.269Z,51.28
2022-08-17T15:32:36.285Z,51.27
2022-08-17T15:35:04.469Z,51.25
2022-08-17T15:37:31.103Z,51.24
2022-08-17T15:39:58.366Z,51.23
2022-08-17T15:42:24.839Z,51.21
2022-08-17T15:44:51.233Z,51.20
2022-08-17T15:47:17.638Z,51.19
2022-08-17T15:49:45.985Z,51.17
2022-08-17T15:52:18.372Z,51.16
2022-08-17T15:54:58.250Z,51.16
2022-08-17T15:57:25.081Z,51.15
2022-08-17T15:59:58.467Z,51.14
2022-08-17T16:03:13.486Z,51.14
2022-08-17T16:05:21.699Z,51.11
2022-08-17T16:07:51.093Z,51.10
2022-08-17T16:10:19.281Z,51.09
2022-08-17T16:12:47.572Z,51.09
2022-08-17T16:15:14.762Z,51.08
2022-08-17T16:17:41.515Z,51.08
2022-08-17T16:20:19.960Z,51.08
2022-08-17T16:22:48.376Z,51.08
2022-08-17T16:25:51.913Z,51.08
2022-08-17T16:28:11.525Z,51.07
2022-08-17T16:30:37.973Z,51.08
2022-08-17T16:33:04.945Z,51.08
2022-08-17T16:35:31.384Z,51.08
2022-08-17T16:37:58.711Z,51.07
2022-08-17T16:40:28.553Z,51.07
2022-08-17T16:42:56.034Z,51.07
2022-08-17T16:45:29.758Z,51.07
2022-08-17T16:47:56.245Z,51.05
2022-08-17T16:50:23.833Z,51.06
2022-08-17T16:52:50.952Z,51.06
2022-08-17T16:55:21.983Z,51.05
2022-08-17T16:57:50.382Z,51.05
2022-08-17T17:00:18.516Z,51.05
2022-08-17T17:02:48.086Z,51.05
2022-08-17T17:05:33.239Z,51.05
2022-08-17T17:08:13.482Z,51.05
2022-08-17T17:10:47.752Z,51.04
2022-08-17T17:13:25.062Z,51.04
2022-08-17T17:16:14.825Z,51.04
2022-08-17T17:18:53.674Z,51.04
2022-08-17T17:21:30.360Z,51.04
2022-08-17T17:24:02.891Z,51.04
2022-08-17T17:26:55.543Z,51.03
2022-08-17T17:29:29.692Z,51.02
2022-08-17T17:32:21.673Z,51.04
2022-08-17T17:34:53.919Z,51.03
2022-08-17T17:37:27.212Z,51.03
2022-08-17T17:39:59.992Z,51.04
2022-08-17T17:42:30.758Z,51.03
2022-08-17T17:45:09.204Z,51.03
2022-08-17T17:47:36.546Z,51.02
2022-08-17T17:50:05.962Z,51.03
2022-08-17T17:52:45.299Z,51.04
2022-08-17T17:55:38.168Z,51.02
2022-08-17T17:58:10.682Z,51.03
2022-08-17T18:00:40.141Z,51.04
2022-08-17T18:03:52.617Z,51.03
2022-08-17T18:06:45.252Z,51.02
2022-08-17T18:09:39.448Z,51.03
2022-08-17T18:12:19.939Z,51.03
2022-08-17T18:15:08.786Z,51.03
2022-08-17T18:17:36.376Z,51.02
2022-08-17T18:20:05.284Z,51.02
2022-08-17T18:22:31.697Z,51.03
2022-08-17T18:24:58.131Z,51.02
2022-08-17T18:27:24.497Z,51.03
2022-08-17T18:29:56.147Z,51.02
2022-08-17T18:32:27.878Z,51.02
2022-08-17T18:34:59.177Z,51.02
2022-08-17T18:37:39.380Z,51.01
2022-08-17T18:40:18.033Z,51.01
2022-08-17T18:43:00.395Z,51.01
2022-08-17T18:45:39.023Z,51.01
2022-08-17T18:48:17.943Z,51.02
2022-08-17T18:50:44.919Z,51.01
2022-08-17T18:53:33.214Z,51.01
2022-08-17T18:56:25.340Z,51.01
2022-08-17T18:59:05.922Z,51.03
2022-08-17T19:01:53.288Z,51.02
2022-08-17T19:04:49.224Z,51.02
2022-08-17T19:07:21.833Z,51.01
2022-08-17T19:10:21.241Z,51.01
2022-08-17T19:12:51.626Z,51.01
2022-08-17T19:15:26.535Z,51.01
2022-08-17T19:18:00.428Z,51.00
2022-08-17T19:20:36.282Z,51.00
2022-08-17T19:23:13.552Z,51.00
2022-08-17T19:25:47.461Z,51.00
2022-08-17T19:28:32.675Z,51.00
2022-08-17T19:31:08.043Z,50.99
2022-08-17T19:33:34.928Z,50.99
2022-08-17T19:36:21.266Z,51.00
2022-08-17T19:39:15.918Z,50.99
2022-08-17T19:41:52.980Z,50.99
2022-08-17T19:44:40.076Z,50.98
2022-08-17T19:47:53.725Z,50.98
2022-08-17T19:50:31.729Z,50.98
2022-08-17T19:53:03.822Z,50.99
2022-08-17T19:55:39.672Z,51.00
2022-08-17T19:58:23.373Z,50.99
2022-08-17T20:00:51.964Z,51.00
2022-08-17T20:03:31.577Z,50.99
2022-08-17T20:06:15.526Z,51.00
2022-08-17T20:08:53.890Z,50.99
2022-08-17T20:11:36.004Z,50.99
2022-08-17T20:14:21.785Z,51.00
2022-08-17T20:16:48.230Z,50.99
2022-08-17T20:19:31.410Z,51.00
2022-08-17T20:22:10.644Z,51.00
2022-08-17T20:24:43.757Z,51.00
2022-08-17T20:27:18.444Z,51.00
2022-08-17T20:30:29.631Z,50.99
2022-08-17T20:32:58.041Z,50.99
2022-08-17T20:35:28.163Z,50.99
2022-08-17T20:38:13.213Z,50.98
2022-08-17T20:41:02.377Z,50.99
2022-08-17T20:43:34.824Z,50.99
2022-08-17T20:46:20.150Z,50.99
2022-08-17T20:48:51.633Z,50.98
2022-08-17T20:51:17.980Z,50.99
2022-08-17T20:53:47.364Z,50.99
2022-08-17T20:56:44.826Z,50.98
2022-08-17T20:59:20.381Z,50.99
2022-08-17T21:02:02.635Z,50.98
2022-08-17T21:04:47.172Z,50.99
2022-08-17T21:07:33.133Z,50.99
2022-08-17T21:10:15.861Z,50.98
2022-08-17T21:12:43.769Z,50.98
2022-08-17T21:15:47.920Z,50.99
2022-08-17T21:18:40.491Z,50.99
2022-08-17T21:21:22.441Z,51.00
2022-08-17T21:24:13.477Z,50.99
2022-08-17T21:27:21.989Z,50.99
2022-08-17T21:30:12.973Z,51.00
2022-08-17T21:32:41.996Z,51.00
2022-08-17T21:35:11.402Z,50.98
2022-08-17T21:37:41.713Z,50.99
2022-08-17T21:40:11.271Z,50.99
2022-08-17T21:42:58.944Z,51.00
2022-08-17T21:45:30.580Z,51.00
2022-08-17T21:48:18.690Z,51.00
2022-08-17T21:51:07.969Z,50.99
2022-08-17T21:53:44.580Z,50.99
2022-08-17T21:56:13.449Z,50.98
2022-08-17T21:58:47.917Z,50.98
2022-08-17T22:01:26.480Z,50.99
2022-08-17T22:04:01.838Z,50.97
2022-08-17T22:06:34.748Z,50.99
2022-08-17T22:09:10.142Z,51.00
2022-08-17T22:12:01.442Z,50.99
2022-08-17T22:14:51.437Z,51.00
2022-08-17T22:17:25.806Z,50.99
2022-08-17T22:19:59.721Z,50.99
2022-08-17T22:22:38.326Z,50.99
2022-08-17T22:25:07.476Z,51.00
2022-08-17T22:28:10.441Z,50.99
2022-08-17T22:31:04.385Z,51.00
2022-08-17T22:33:39.934Z,51.00
2022-08-17T22:36:12.542Z,51.00
2022-08-17T22:38:41.046Z,51.00
2022-08-17T22:41:36.308Z,51.00
2022-08-17T22:44:36.736Z,51.01
2022-08-17T22:47:15.346Z,51.02
2022-08-17T22:49:54.705Z,51.01
2022-08-17T22:52:33.931Z,51.01
2022-08-17T22:55:14.347Z,51.02
2022-08-17T22:57:46.361Z,51.01
2022-08-17T23:00:34.680Z,51.01
2022-08-17T23:03:13.365Z,51.02
2022-08-17T23:05:42.198Z,51.02
2022-08-17T23:08:08.771Z,51.02
2022-08-17T23:10:35.294Z,51.02
2022-08-17T23:13:01.804Z,51.02
2022-08-17T23:15:28.445Z,51.01
2022-08-17T23:17:54.902Z,51.02
2022-08-17T23:20:21.393Z,51.02
2022-08-17T23:22:52.145Z,51.03
2022-08-17T23:25:26.670Z,51.03
2022-08-17T23:27:53.317Z,51.03
2022-08-17T23:30:20.498Z,51.02
2022-08-17T23:32:53.354Z,51.03
2022-08-17T23:35:20.465Z,51.02
2022-08-17T23:38:06.896Z,51.03
2022-08-17T23:40:33.418Z,51.03
2022-08-17T23:42:59.877Z,51.03
2022-08-17T23:45:31.015Z,51.03
2022-08-17T23:47:57.547Z,51.03
2022-08-17T23:50:24.696Z,51.03
2022-08-17T23:52:56.378Z,51.04
2022-08-17T23:55:22.822Z,51.02
2022-08-17T23:57:49.449Z,51.03
